createdAt,value
2022-10-15T00:01:23.518Z,100627.13
2022-10-15T00:03:50.675Z,100632.38
2022-10-15T00:06:20.711Z,100634.19
2022-10-15T00:08:48.169Z,100630.72
2022-10-15T00:11:18.337Z,100622.09
2022-10-15T00:13:45.648Z,100629.88
2022-10-15T00:16:19.705Z,100623.81
2022-10-15T00:18:46.911Z,100623.88
2022-10-15T00:21:16.400Z,100623.00
2022-10-15T00:23:44.293Z,100619.53
2022-10-15T00:26:15.532Z,100627.38
2022-10-15T00:28:42.831Z,100631.75
2022-10-15T00:31:13.320Z,100622.19
2022-10-15T00:33:41.564Z,100625.75
2022-10-15T00:36:12.920Z,100624.84
2022-10-15T00:38:40.255Z,100625.75
2022-10-15T00:41:10.947Z,100624.94
2022-10-15T00:43:53.372Z,100603.31
2022-10-15T00:46:37.316Z,100613.75
2022-10-15T00:49:08.978Z,100614.63
2022-10-15T00:51:42.118Z,100620.72
2022-10-15T00:54:11.253Z,100605.97
2022-10-15T00:56:41.455Z,100612.91
2022-10-15T00:59:09.772Z,100599.03
2022-10-15T01:01:36.877Z,100606.91
2022-10-15T01:04:05.849Z,100606.91
2022-10-15T01:06:32.915Z,100607.75
2022-10-15T01:09:01.023Z,100607.81
2022-10-15T01:11:37.182Z,100603.47
2022-10-15T01:14:49.026Z,100603.53
2022-10-15T01:17:32.333Z,100600.09
2022-10-15T01:20:30.137Z,100599.22
2022-10-15T01:23:15.582Z,100592.34
2022-10-15T01:25:48.257Z,100594.94
2022-10-15T01:28:32.177Z,100594.09
2022-10-15T01:31:03.882Z,100597.53
2022-10-15T01:33:47.566Z,100588.88
2022-10-15T01:36:27.830Z,100589.69
2022-10-15T01:39:09.777Z,100584.50
2022-10-15T01:41:42.307Z,100584.47
2022-10-15T01:44:16.764Z,100584.53
2022-10-15T01:46:58.913Z,100583.66
2022-10-15T01:49:30.445Z,100587.97
2022-10-15T01:52:02.209Z,100581.09
2022-10-15T01:54:29.786Z,100579.34
2022-10-15T01:56:58.838Z,100562.88
2022-10-15T01:59:30.177Z,100565.44
2022-10-15T02:01:58.405Z,100567.13
2022-10-15T02:04:31.198Z,100566.28
2022-10-15T02:07:05.598Z,100567.97
2022-10-15T02:09:38.548Z,100562.78
2022-10-15T02:12:41.997Z,100558.41
2022-10-15T02:15:17.703Z,100560.16
2022-10-15T02:18:12.846Z,100565.34
2022-10-15T02:20:59.501Z,100553.22
2022-10-15T02:23:43.339Z,100541.91
2022-10-15T02:26:12.190Z,100541.03
2022-10-15T02:28:43.282Z,100542.81
2022-10-15T02:31:14.301Z,100542.81
2022-10-15T02:33:42.539Z,100530.66
2022-10-15T02:36:10.126Z,100538.47
2022-10-15T02:38:40.370Z,100537.59
2022-10-15T02:41:08.643Z,100534.94
2022-10-15T02:43:36.586Z,100530.66
2022-10-15T02:46:05.061Z,100530.66
2022-10-15T02:48:32.255Z,100522.88
2022-10-15T02:50:59.247Z,100528.16
2022-10-15T02:53:26.289Z,100529.06
2022-10-15T02:55:53.301Z,100516.09
2022-10-15T02:58:20.296Z,100520.50
2022-10-15T03:00:47.369Z,100517.91
2022-10-15T03:03:14.443Z,100515.31
2022-10-15T03:05:43.333Z,100511.84
2022-10-15T03:08:10.355Z,100504.94
2022-10-15T03:10:37.360Z,100502.34
2022-10-15T03:13:05.949Z,100491.94
2022-10-15T03:15:33.603Z,100494.50
2022-10-15T03:18:00.600Z,100482.38
2022-10-15T03:20:27.651Z,100492.75
2022-10-15T03:22:55.142Z,100482.34
2022-10-15T03:25:22.844Z,100486.69
2022-10-15T03:27:52.771Z,100469.22
2022-10-15T03:30:20.251Z,100498.66
2022-10-15T03:32:48.229Z,100496.91
2022-10-15T03:35:15.509Z,100493.38
2022-10-15T03:37:42.522Z,100487.31
2022-10-15T03:40:13.730Z,100494.19
2022-10-15T03:42:41.718Z,100497.66
2022-10-15T03:45:09.179Z,100498.47
2022-10-15T03:47:36.225Z,100498.47
2022-10-15T03:50:03.534Z,100497.59
2022-10-15T03:52:30.543Z,100487.16
2022-10-15T03:54:57.546Z,100482.81
2022-10-15T03:57:25.001Z,100482.88
2022-10-15T03:59:52.037Z,100492.38
2022-10-15T04:02:19.111Z,100491.50
2022-10-15T04:04:46.099Z,100473.31
2022-10-15T04:07:13.155Z,100477.59
2022-10-15T04:09:40.175Z,100484.56
2022-10-15T04:12:07.176Z,100494.91
2022-10-15T04:14:34.167Z,100479.22
2022-10-15T04:17:01.879Z,100498.34
2022-10-15T04:19:28.999Z,100483.72
2022-10-15T04:21:56.404Z,100505.34
2022-10-15T04:24:23.791Z,100506.22
2022-10-15T04:26:50.949Z,100501.91
2022-10-15T04:29:18.029Z,100507.13
2022-10-15T04:31:45.207Z,100506.22
2022-10-15T04:34:12.645Z,100516.59
2022-10-15T04:36:39.679Z,100509.66
2022-10-15T04:39:08.609Z,100504.44
2022-10-15T04:41:37.949Z,100504.50
2022-10-15T04:44:05.150Z,100510.50
2022-10-15T04:46:32.274Z,100506.13
2022-10-15T04:48:59.388Z,100512.25
2022-10-15T04:51:26.986Z,100514.00
2022-10-15T04:53:55.764Z,100513.94
2022-10-15T04:56:23.646Z,100507.03
2022-10-15T04:58:51.287Z,100509.63
2022-10-15T05:01:20.223Z,100515.69
2022-10-15T05:03:48.863Z,100515.75
2022-10-15T05:06:20.868Z,100511.41
2022-10-15T05:08:49.174Z,100510.63
2022-10-15T05:11:21.570Z,100503.69
2022-10-15T05:13:49.071Z,100502.81
2022-10-15T05:16:21.863Z,100509.72
2022-10-15T05:18:50.711Z,100509.78
2022-10-15T05:21:19.117Z,100500.34
2022-10-15T05:23:47.179Z,100506.44
2022-10-15T05:26:15.943Z,100507.28
2022-10-15T05:28:43.093Z,100498.69
2022-10-15T05:31:18.353Z,100501.22
2022-10-15T05:33:49.718Z,100498.72
2022-10-15T05:36:21.332Z,100504.78
2022-10-15T05:38:51.360Z,100503.00
2022-10-15T05:41:18.786Z,100496.13
2022-10-15T05:43:50.623Z,100487.44
2022-10-15T05:46:18.843Z,100498.75
2022-10-15T05:48:53.936Z,100492.72
2022-10-15T05:51:21.277Z,100504.06
2022-10-15T05:53:51.470Z,100495.34
2022-10-15T05:56:18.495Z,100494.59
2022-10-15T05:58:45.616Z,100501.47
2022-10-15T06:01:13.567Z,100500.63
2022-10-15T06:03:41.604Z,100492.88
2022-10-15T06:06:22.995Z,100498.97
2022-10-15T06:08:50.494Z,100486.00
2022-10-15T06:11:18.162Z,100479.91
2022-10-15T06:13:46.367Z,100493.84
2022-10-15T06:16:18.034Z,100496.47
2022-10-15T06:18:48.163Z,100500.78
2022-10-15T06:21:15.208Z,100496.47
2022-10-15T06:23:42.235Z,100483.44
2022-10-15T06:26:10.315Z,100487.81
2022-10-15T06:28:38.564Z,100487.81
2022-10-15T06:31:07.284Z,100500.81
2022-10-15T06:33:35.342Z,100498.28
2022-10-15T06:36:04.633Z,100498.25
2022-10-15T06:38:33.007Z,100497.38
2022-10-15T06:41:00.235Z,100494.78
2022-10-15T06:43:29.805Z,100511.25
2022-10-15T06:46:00.156Z,100506.03
2022-10-15T06:48:27.260Z,100499.13
2022-10-15T06:50:54.882Z,100483.50
2022-10-15T06:53:22.991Z,100501.66
2022-10-15T06:55:50.030Z,100501.72
2022-10-15T06:58:17.133Z,100511.28
2022-10-15T07:00:44.197Z,100504.41
2022-10-15T07:03:13.530Z,100501.84
2022-10-15T07:05:40.549Z,100494.91
2022-10-15T07:08:07.576Z,100499.25
2022-10-15T07:10:34.714Z,100509.69
2022-10-15T07:13:02.087Z,100501.03
2022-10-15T07:15:29.314Z,100494.94
2022-10-15T07:17:57.885Z,100503.63
2022-10-15T07:20:25.169Z,100506.22
2022-10-15T07:23:00.321Z,100497.59
2022-10-15T07:25:28.141Z,100500.19
2022-10-15T07:27:56.461Z,100506.34
2022-10-15T07:30:27.562Z,100501.19
2022-10-15T07:32:58.510Z,100511.53
2022-10-15T07:35:27.130Z,100507.16
2022-10-15T07:38:00.251Z,100517.66
2022-10-15T07:40:27.262Z,100515.91
2022-10-15T07:42:56.230Z,100511.59
2022-10-15T07:45:25.126Z,100507.28
2022-10-15T07:47:53.220Z,100502.97
2022-10-15T07:50:21.054Z,100506.47
2022-10-15T07:52:48.148Z,100495.22
2022-10-15T07:55:15.226Z,100493.53
2022-10-15T07:57:42.253Z,100487.44
2022-10-15T08:00:09.926Z,100500.44
2022-10-15T08:02:36.977Z,100496.13
2022-10-15T08:05:04.183Z,100500.47
2022-10-15T08:07:31.234Z,100495.25
2022-10-15T08:09:58.285Z,100484.88
2022-10-15T08:12:25.881Z,100483.16
2022-10-15T08:14:53.168Z,100485.78
2022-10-15T08:17:20.234Z,100478.00
2022-10-15T08:19:47.336Z,100465.88
2022-10-15T08:22:14.920Z,100459.81
2022-10-15T08:24:41.989Z,100452.03
2022-10-15T08:27:09.048Z,100444.22
2022-10-15T08:29:36.157Z,100453.78
2022-10-15T08:32:03.310Z,100459.81
2022-10-15T08:34:30.416Z,100451.22
2022-10-15T08:36:57.501Z,100459.88
2022-10-15T08:39:25.150Z,100459.00
2022-10-15T08:41:57.051Z,100469.38
2022-10-15T08:44:27.612Z,100465.06
2022-10-15T08:47:02.890Z,100459.00
2022-10-15T08:49:56.518Z,100459.00
2022-10-15T08:52:34.236Z,100456.34
2022-10-15T08:55:05.294Z,100453.75
2022-10-15T08:57:38.559Z,100448.53
2022-10-15T09:00:20.531Z,100442.47
2022-10-15T09:03:24.117Z,100445.91
2022-10-15T09:06:02.098Z,100439.81
2022-10-15T09:08:32.028Z,100438.97
2022-10-15T09:11:35.656Z,100437.19
2022-10-15T09:14:06.036Z,100444.97
2022-10-15T09:16:37.326Z,100440.56
2022-10-15T09:19:11.672Z,100433.59
2022-10-15T09:21:38.919Z,100428.34
2022-10-15T09:24:06.233Z,100430.94
2022-10-15T09:26:44.819Z,100425.69
2022-10-15T09:29:22.089Z,100429.97
2022-10-15T09:32:03.184Z,100425.63
2022-10-15T09:34:40.261Z,100413.44
2022-10-15T09:37:16.176Z,100402.19
2022-10-15T09:40:01.971Z,100415.09
2022-10-15T09:42:34.384Z,100410.72
2022-10-15T09:45:05.806Z,100398.59
2022-10-15T09:47:35.338Z,100412.53
2022-10-15T09:50:05.450Z,100402.16
2022-10-15T09:52:54.143Z,100427.38
2022-10-15T09:55:36.887Z,100417.00
2022-10-15T09:58:10.585Z,100417.00
2022-10-15T10:01:23.249Z,100410.94
2022-10-15T10:04:11.679Z,100408.38
2022-10-15T10:06:50.729Z,100404.94
2022-10-15T10:09:21.602Z,100393.66
2022-10-15T10:11:55.355Z,100382.38
2022-10-15T10:14:24.419Z,100376.28
2022-10-15T10:17:18.566Z,100358.03
2022-10-15T10:20:22.456Z,100365.00
2022-10-15T10:22:52.579Z,100370.22
2022-10-15T10:25:42.788Z,100367.56
2022-10-15T10:28:09.930Z,100372.72
2022-10-15T10:30:43.845Z,100382.16
2022-10-15T10:33:16.711Z,100358.63
2022-10-15T10:35:46.621Z,100375.09
2022-10-15T10:38:22.032Z,100368.19
2022-10-15T10:40:59.070Z,100377.75
2022-10-15T10:43:28.822Z,100374.31
2022-10-15T10:46:16.021Z,100365.59
2022-10-15T10:48:46.050Z,100369.97
2022-10-15T10:51:19.357Z,100360.50
2022-10-15T10:53:58.404Z,100375.19
2022-10-15T10:56:34.077Z,100362.09
2022-10-15T10:59:12.969Z,100366.50
2022-10-15T11:01:40.019Z,100367.41
2022-10-15T11:04:18.571Z,100364.88
2022-10-15T11:06:58.349Z,100361.44
2022-10-15T11:09:47.937Z,100358.91
2022-10-15T11:12:38.504Z,100358.03
2022-10-15T11:15:18.858Z,100358.94
2022-10-15T11:18:08.864Z,100351.13
2022-10-15T11:21:00.707Z,100348.56
2022-10-15T11:23:53.685Z,100342.44
2022-10-15T11:26:26.391Z,100345.09
2022-10-15T11:28:59.597Z,100333.81
2022-10-15T11:31:49.270Z,100332.00
2022-10-15T11:34:46.461Z,100334.56
2022-10-15T11:37:38.553Z,100333.72
2022-10-15T11:40:33.369Z,100328.53
2022-10-15T11:43:08.561Z,100325.84
2022-10-15T11:45:57.054Z,100326.72
2022-10-15T11:48:42.534Z,100325.78
2022-10-15T11:51:32.117Z,100323.19
2022-10-15T11:54:34.611Z,100323.22
2022-10-15T11:57:03.735Z,100322.41
2022-10-15T11:59:49.863Z,100317.13
2022-10-15T12:02:34.887Z,100313.53
2022-10-15T12:05:31.229Z,100310.94
2022-10-15T12:07:58.589Z,100314.47
2022-10-15T12:10:34.410Z,100312.59
2022-10-15T12:14:06.175Z,100316.91
2022-10-15T12:16:42.420Z,100316.00
2022-10-15T12:19:18.843Z,100318.53
2022-10-15T12:21:54.442Z,100319.44
2022-10-15T12:24:40.450Z,100311.56
2022-10-15T12:27:19.546Z,100312.41
2022-10-15T12:30:12.891Z,100308.88
2022-10-15T12:32:48.697Z,100305.34
2022-10-15T12:35:16.182Z,100303.50
2022-10-15T12:37:46.024Z,100302.63
2022-10-15T12:40:27.111Z,100310.47
2022-10-15T12:43:03.374Z,100307.84
2022-10-15T12:45:41.888Z,100308.69
2022-10-15T12:48:08.827Z,100307.72
2022-10-15T12:50:37.291Z,100313.84
2022-10-15T12:53:26.009Z,100313.03
2022-10-15T12:56:24.078Z,100310.41
2022-10-15T12:58:56.123Z,100312.16
2022-10-15T13:01:23.124Z,100312.16
2022-10-15T13:03:50.601Z,100310.44
2022-10-15T13:06:20.627Z,100314.78
2022-10-15T13:09:10.532Z,100315.69
2022-10-15T13:11:43.293Z,100326.13
2022-10-15T13:14:31.005Z,100327.06
2022-10-15T13:17:00.810Z,100329.69
2022-10-15T13:19:39.315Z,100328.81
2022-10-15T13:22:21.420Z,100327.09
2022-10-15T13:24:48.660Z,100326.13
2022-10-15T13:27:23.447Z,100331.34
2022-10-15T13:30:02.157Z,100331.44
2022-10-15T13:32:33.260Z,100336.53
2022-10-15T13:35:02.923Z,100335.78
2022-10-15T13:37:34.306Z,100334.84
2022-10-15T13:40:06.760Z,100341.81
2022-10-15T13:42:35.495Z,100342.72
2022-10-15T13:45:16.390Z,100337.41
2022-10-15T13:47:48.769Z,100353.00
2022-10-15T13:50:28.272Z,100332.81
2022-10-15T13:53:10.067Z,100334.41
2022-10-15T13:55:40.040Z,100355.28
2022-10-15T13:58:26.660Z,100349.19
2022-10-15T14:01:03.751Z,100348.31
2022-10-15T14:03:33.898Z,100357.81
2022-10-15T14:06:19.725Z,100341.16
2022-10-15T14:08:49.091Z,100358.50
2022-10-15T14:11:17.693Z,100363.59
2022-10-15T14:13:55.886Z,100364.41
2022-10-15T14:16:39.828Z,100367.06
2022-10-15T14:19:06.758Z,100370.41
2022-10-15T14:21:35.601Z,100373.84
2022-10-15T14:24:13.349Z,100371.13
2022-10-15T14:26:40.978Z,100363.47
2022-10-15T14:29:16.187Z,100378.28
2022-10-15T14:31:47.248Z,100387.13
2022-10-15T14:34:41.740Z,100395.75
2022-10-15T14:37:30.751Z,100387.84
2022-10-15T14:40:15.884Z,100402.56
2022-10-15T14:43:03.813Z,100416.59
2022-10-15T14:45:54.192Z,100420.25
2022-10-15T14:48:25.238Z,100425.44
2022-10-15T14:50:53.215Z,100426.38
2022-10-15T14:53:28.089Z,100438.47
2022-10-15T14:56:03.014Z,100439.47
2022-10-15T14:58:30.710Z,100437.66
2022-10-15T15:01:00.759Z,100438.66
2022-10-15T15:03:37.690Z,100445.69
2022-10-15T15:06:05.126Z,100444.88
2022-10-15T15:08:32.219Z,100445.72
2022-10-15T15:11:02.011Z,100441.41
2022-10-15T15:13:32.068Z,100441.31
2022-10-15T15:15:59.059Z,100447.44
2022-10-15T15:18:26.233Z,100454.44
2022-10-15T15:20:53.349Z,100456.16
2022-10-15T15:23:24.755Z,100450.91
2022-10-15T15:25:52.412Z,100466.69
2022-10-15T15:28:26.345Z,100471.94
2022-10-15T15:31:02.071Z,100459.88
2022-10-15T15:33:29.431Z,100472.91
2022-10-15T15:36:07.896Z,100465.09
2022-10-15T15:41:20.187Z,100464.41
2022-10-15T15:43:47.657Z,100464.38
2022-10-15T15:46:15.184Z,100474.00
2022-10-15T15:48:42.397Z,100480.16
2022-10-15T15:51:30.265Z,100482.69
2022-10-15T15:53:57.834Z,100476.53
2022-10-15T15:56:25.336Z,100483.50
2022-10-15T15:58:52.505Z,100482.59
2022-10-15T16:01:20.102Z,100478.38
2022-10-15T16:03:47.155Z,100489.75
2022-10-15T16:06:14.360Z,100491.50
2022-10-15T16:08:41.401Z,100498.56
2022-10-15T16:11:08.450Z,100500.34
2022-10-15T16:13:35.536Z,100508.16
2022-10-15T16:16:03.166Z,100505.59
2022-10-15T16:18:30.335Z,100508.19
2022-10-15T16:20:57.604Z,100516.03
2022-10-15T16:23:24.865Z,100516.09
2022-10-15T16:25:54.320Z,100519.56
2022-10-15T16:28:21.345Z,100521.31
2022-10-15T16:30:48.590Z,100525.66
2022-10-15T16:33:15.825Z,100530.88
2022-10-15T16:35:42.873Z,100543.91
2022-10-15T16:38:09.897Z,100531.78
2022-10-15T16:40:38.479Z,100532.66
2022-10-15T16:43:05.648Z,100537.00
2022-10-15T16:45:33.383Z,100533.53
2022-10-15T16:48:00.376Z,100539.59
2022-10-15T16:50:27.344Z,100537.00
2022-10-15T16:52:54.437Z,100551.75
2022-10-15T16:55:21.445Z,100557.78
2022-10-15T16:57:48.462Z,100559.53
2022-10-15T17:00:15.451Z,100565.59
2022-10-15T17:02:42.567Z,100559.53
2022-10-15T17:05:09.689Z,100564.72
2022-10-15T17:07:36.731Z,100567.34
2022-10-15T17:10:04.160Z,100564.72
2022-10-15T17:12:31.200Z,100576.84
2022-10-15T17:14:58.252Z,100578.56
2022-10-15T17:17:27.969Z,100569.91
2022-10-15T17:19:55.461Z,100588.09
2022-10-15T17:22:22.753Z,100590.69
2022-10-15T17:24:50.165Z,100592.38
2022-10-15T17:27:17.496Z,100597.59
2022-10-15T17:29:44.605Z,100599.31
2022-10-15T17:32:11.602Z,100607.09
2022-10-15T17:34:38.582Z,100610.53
2022-10-15T17:37:05.568Z,100615.75
2022-10-15T17:39:33.171Z,100613.16
2022-10-15T17:42:00.250Z,100611.44
2022-10-15T17:44:27.324Z,100620.94
2022-10-15T17:46:54.368Z,100626.16
2022-10-15T17:49:21.401Z,100629.56
2022-10-15T17:51:48.546Z,100622.66
2022-10-15T17:54:15.743Z,100615.72
2022-10-15T17:56:42.994Z,100630.41
2022-10-15T17:59:12.716Z,100637.34
2022-10-15T18:01:59.189Z,100625.19
2022-10-15T18:04:28.437Z,100634.69
2022-10-15T18:06:55.682Z,100622.53
2022-10-15T18:09:22.688Z,100643.34
2022-10-15T18:11:49.760Z,100633.78
2022-10-15T18:14:16.891Z,100662.38
2022-10-15T18:16:44.287Z,100645.91
2022-10-15T18:19:11.570Z,100662.38
2022-10-15T18:21:43.414Z,100654.53
2022-10-15T18:24:12.761Z,100662.34
2022-10-15T18:26:39.826Z,100664.94
2022-10-15T18:29:07.014Z,100677.00
2022-10-15T18:31:34.081Z,100679.63
2022-10-15T18:34:01.063Z,100684.84
2022-10-15T18:36:30.769Z,100665.78
2022-10-15T18:38:58.326Z,100668.44
2022-10-15T18:41:28.229Z,100665.84
2022-10-15T18:43:58.292Z,100668.41
2022-10-15T18:46:27.360Z,100675.31
2022-10-15T18:48:55.021Z,100663.19
2022-10-15T18:51:22.169Z,100669.22
2022-10-15T18:53:49.180Z,100675.25
2022-10-15T18:56:16.247Z,100670.94
2022-10-15T18:58:43.322Z,100673.50
2022-10-15T19:01:25.422Z,100675.25
2022-10-15T19:03:56.694Z,100676.13
2022-10-15T19:06:27.349Z,100662.28
2022-10-15T19:08:57.679Z,100664.84
2022-10-15T19:11:26.102Z,100677.00
2022-10-15T19:13:53.458Z,100681.28
2022-10-15T19:16:20.539Z,100683.88
2022-10-15T19:18:47.541Z,100676.97
2022-10-15T19:21:14.860Z,100690.84
2022-10-15T19:23:41.944Z,100683.03
2022-10-15T19:26:13.569Z,100682.19
2022-10-15T19:28:40.783Z,100679.53
2022-10-15T19:31:11.596Z,100680.50
2022-10-15T19:33:38.689Z,100681.34
2022-10-15T19:36:05.861Z,100677.91
2022-10-15T19:38:35.674Z,100677.91
2022-10-15T19:41:05.629Z,100682.28
2022-10-15T19:43:36.005Z,100683.16
2022-10-15T19:46:04.318Z,100686.63
2022-10-15T19:48:31.978Z,100692.66
2022-10-15T19:51:02.006Z,100692.69
2022-10-15T19:53:31.990Z,100700.50
2022-10-15T19:56:02.350Z,100703.97
2022-10-15T19:58:30.068Z,100696.16
2022-10-15T20:00:57.769Z,100699.63
2022-10-15T20:03:26.846Z,100704.00
2022-10-15T20:05:55.414Z,100699.66
2022-10-15T20:08:23.031Z,100703.16
2022-10-15T20:10:51.394Z,100692.69
2022-10-15T20:13:20.714Z,100703.16
2022-10-15T20:15:51.291Z,100706.63
2022-10-15T20:18:19.646Z,100706.66
2022-10-15T20:20:47.594Z,100711.03
2022-10-15T20:23:16.211Z,100704.97
2022-10-15T20:25:44.221Z,100714.47
2022-10-15T20:28:13.393Z,100709.28
2022-10-15T20:30:40.800Z,100711.84
2022-10-15T20:33:08.831Z,100717.06
2022-10-15T20:35:37.457Z,100707.50
2022-10-15T20:38:05.497Z,100725.69
2022-10-15T20:40:34.438Z,100720.53
2022-10-15T20:43:01.455Z,100728.31
2022-10-15T20:45:34.628Z,100732.69
2022-10-15T20:48:05.688Z,100733.53
2022-10-15T20:50:35.621Z,100729.19
2022-10-15T20:53:03.338Z,100747.38
2022-10-15T20:55:30.344Z,100744.75
2022-10-15T20:57:57.430Z,100746.47
2022-10-15T21:00:24.480Z,100741.25
2022-10-15T21:02:51.522Z,100747.34
2022-10-15T21:05:18.597Z,100745.56
2022-10-15T21:07:45.581Z,100748.16
2022-10-15T21:10:12.799Z,100753.41
2022-10-15T21:12:39.803Z,100762.00
2022-10-15T21:15:07.383Z,100767.25
2022-10-15T21:17:34.375Z,100760.31
2022-10-15T21:20:01.458Z,100763.78
2022-10-15T21:22:28.453Z,100761.19
2022-10-15T21:24:58.261Z,100765.53
2022-10-15T21:27:26.045Z,100762.94
2022-10-15T21:29:53.193Z,100769.88
2022-10-15T21:32:20.176Z,100770.75
2022-10-15T21:34:47.198Z,100771.63
2022-10-15T21:37:14.278Z,100779.41
2022-10-15T21:39:41.269Z,100777.72
2022-10-15T21:42:08.291Z,100786.34
2022-10-15T21:44:35.303Z,100787.25
2022-10-15T21:47:02.307Z,100786.38
2022-10-15T21:49:29.306Z,100777.75
2022-10-15T21:51:56.368Z,100782.94
2022-10-15T21:54:23.502Z,100777.75
2022-10-15T21:56:50.571Z,100782.94
2022-10-15T21:59:17.545Z,100784.66
2022-10-15T22:01:45.632Z,100804.56
2022-10-15T22:04:12.847Z,100806.25
2022-10-15T22:06:40.454Z,100807.13
2022-10-15T22:09:08.372Z,100805.38
2022-10-15T22:11:38.218Z,100816.63
2022-10-15T22:14:07.532Z,100808.81
2022-10-15T22:16:36.788Z,100808.81
2022-10-15T22:19:05.474Z,100808.81
2022-10-15T22:21:36.264Z,100812.31
2022-10-15T22:24:07.200Z,100810.59
2022-10-15T22:26:37.961Z,100810.59
2022-10-15T22:29:06.445Z,100806.25
2022-10-15T22:31:34.067Z,100800.22
2022-10-15T22:34:01.179Z,100813.19
2022-10-15T22:36:30.496Z,100801.91
2022-10-15T22:39:01.738Z,100817.53
2022-10-15T22:41:31.588Z,100818.44
2022-10-15T22:43:58.811Z,100814.94
2022-10-15T22:46:26.700Z,100809.72
2022-10-15T22:48:53.813Z,100816.63
2022-10-15T22:51:21.116Z,100809.66
2022-10-15T22:53:48.406Z,100815.72
2022-10-15T22:56:17.872Z,100820.88
2022-10-15T22:58:45.680Z,100810.44
2022-10-15T23:01:24.847Z,100822.53
2022-10-15T23:03:54.767Z,100822.50
2022-10-15T23:06:22.789Z,100821.59
2022-10-15T23:08:50.240Z,100827.66
2022-10-15T23:11:21.318Z,100822.34
2022-10-15T23:13:53.454Z,100831.06
2022-10-15T23:16:26.224Z,100829.25
2022-10-15T23:18:56.027Z,100821.41
2022-10-15T23:21:45.168Z,100816.28
2022-10-15T23:24:13.290Z,100815.38
2022-10-15T23:26:40.875Z,100822.22
2022-10-15T23:29:14.034Z,100826.47
2022-10-15T23:31:41.267Z,100821.19
2022-10-15T23:34:14.504Z,100815.88
2022-10-15T23:36:41.834Z,100826.25
2022-10-15T23:39:13.080Z,100825.34
2022-10-15T23:41:40.388Z,100820.09
2022-10-15T23:44:07.994Z,100820.06
2022-10-15T23:46:35.029Z,100820.91
2022-10-15T23:49:02.092Z,100825.25
2022-10-15T23:51:30.429Z,100822.66
2022-10-15T23:53:59.295Z,100818.34
2022-10-15T23:56:26.756Z,100819.25
2022-10-15T23:58:56.934Z,100820.09
